Time;durP1;ratioP1;P1;durP2;ratioP2;P2;SDS_P1;SDS_P2;PMS_P1;PMS_P2;Temp;Humidity;BMP_temperature;BMP_pressure;BME280_temperature;BME280_humidity;BME280_pressure;Samples;Min_cycle;Max_cycle;Signal;HPM_P1;HPM_P2
2022/02/20 00:06:42;;;;;;;8.70;4.20;;;;;;;-0.24;59.84;99108.98;436000;1273;142964;-65
2022/02/20 00:16:48;;;;;;;8.30;3.60;;;;;;;-0.40;60.30;99106.48;443896;1271;141636;-65
2022/02/20 00:26:54;;;;;;;10.20;3.80;;;;;;;-0.41;60.76;99095.16;429949;1273;141140;-65
2022/02/20 00:36:59;;;;;;;7.30;5.10;;;;;;;-0.39;60.82;99092.53;432301;1271;141724;-69
2022/02/20 00:47:06;;;;;;;9.00;3.80;;;;;;;-0.34;61.06;99082.58;433375;1271;141328;-70
2022/02/20 00:57:12;;;;;;;8.60;3.70;;;;;;;0.04;61.03;99067.07;430482;1270;142145;-69
2022/02/20 01:07:18;;;;;;;7.00;3.00;;;;;;;0.34;60.55;99052.58;431732;1270;141922;-71
2022/02/20 01:17:24;;;;;;;8.50;4.00;;;;;;;0.46;60.00;99040.88;430379;1271;141272;-71
2022/02/20 01:27:30;;;;;;;7.90;3.80;;;;;;;0.35;59.73;99026.20;431767;1270;140306;-70
2022/02/20 01:37:36;;;;;;;8.60;4.20;;;;;;;0.05;59.68;99008.00;431233;1270;140423;-71
2022/02/20 01:47:42;;;;;;;10.70;3.60;;;;;;;-0.24;59.97;99000.95;433076;1270;144730;-71
2022/02/20 01:57:48;;;;;;;10.10;4.80;;;;;;;-0.48;60.41;98983.04;431155;1271;141671;-72
2022/02/20 02:07:54;;;;;;;9.60;4.20;;;;;;;-0.60;60.74;98971.02;432934;1270;141751;-71
2022/02/20 02:18:01;;;;;;;10.70;3.60;;;;;;;-0.66;60.82;98947.45;431214;1271;142920;-71
2022/02/20 02:28:07;;;;;;;12.30;5.10;;;;;;;-0.70;61.28;98939.14;433568;1270;141507;-72
2022/02/20 02:38:13;;;;;;;11.70;5.00;;;;;;;-0.66;61.52;98930.41;433755;1271;268595;-71
2022/02/20 02:48:19;;;;;;;12.50;5.40;;;;;;;-0.49;61.18;98914.99;431155;1270;141291;-71
2022/02/20 02:58:27;;;;;;;8.50;3.80;;;;;;;-0.37;61.45;98902.95;434450;1270;142302;-72
2022/02/20 03:08:33;;;;;;;11.40;4.30;;;;;;;-0.22;61.19;98891.81;434330;1271;140878;-71
2022/02/20 03:18:39;;;;;;;8.60;5.00;;;;;;;-0.09;61.40;98874.56;430694;1270;140969;-71
2022/02/20 03:28:45;;;;;;;9.40;4.10;;;;;;;-0.04;61.19;98854.80;431360;1270;141517;-71
2022/02/20 03:38:51;;;;;;;13.00;5.00;;;;;;;0.03;61.15;98837.02;431227;1270;142151;-72
2022/02/20 03:48:57;;;;;;;9.70;4.70;;;;;;;0.17;61.20;98811.23;430444;1271;142760;-71
2022/02/20 03:59:03;;;;;;;8.20;2.90;;;;;;;0.36;60.80;98795.13;430338;1271;141333;-70
2022/02/20 04:09:11;;;;;;;8.70;3.80;;;;;;;0.47;60.78;98784.41;429915;1270;141039;-70
2022/02/20 04:19:17;;;;;;;7.10;3.80;;;;;;;0.59;60.58;98775.70;431047;1270;140840;-69
2022/02/20 04:29:23;;;;;;;6.90;3.60;;;;;;;0.71;60.56;98775.45;430084;1271;140754;-70
2022/02/20 04:39:29;;;;;;;6.50;3.30;;;;;;;0.81;60.47;98763.70;430504;1271;143833;-71
2022/02/20 04:49:35;;;;;;;6.60;2.80;;;;;;;0.91;60.51;98753.52;431409;1271;141746;-72
2022/02/20 04:59:41;;;;;;;9.30;3.80;;;;;;;0.97;60.33;98733.79;430871;1271;140887;-70
2022/02/20 05:09:46;;;;;;;6.40;3.10;;;;;;;1.00;60.21;98709.05;430263;1270;140908;-73
2022/02/20 05:19:52;;;;;;;8.40;3.40;;;;;;;0.91;60.15;98697.15;430920;1270;141268;-70
2022/02/20 05:29:58;;;;;;;8.10;3.80;;;;;;;0.76;60.55;98688.95;432705;1269;141411;-66
2022/02/20 05:40:05;;;;;;;10.50;4.30;;;;;;;0.72;60.53;98669.45;430753;1270;142660;-71
2022/02/20 05:50:12;;;;;;;7.70;3.40;;;;;;;0.75;60.74;98659.35;432808;1270;141321;-70
2022/02/20 06:00:21;;;;;;;6.60;3.70;;;;;;;0.82;60.48;98651.34;431307;1270;142609;-71
2022/02/20 06:10:28;;;;;;;8.90;4.30;;;;;;;0.91;60.40;98640.45;431249;1270;141693;-71
2022/02/20 06:20:33;;;;;;;9.20;4.30;;;;;;;1.01;60.31;98625.58;430865;1270;141155;-70
2022/02/20 06:30:39;;;;;;;9.70;4.40;;;;;;;1.07;60.23;98613.64;433909;1270;141940;-71
2022/02/20 06:40:45;;;;;;;11.20;5.80;;;;;;;1.19;59.97;98615.05;431645;1271;141157;-71
2022/02/20 06:50:51;;;;;;;9.80;5.30;;;;;;;1.39;59.83;98609.41;432083;1270;141269;-71
2022/02/20 07:00:56;;;;;;;19.10;10.00;;;;;;;1.61;59.61;98602.77;441643;1270;142074;-71
2022/02/20 07:11:03;;;;;;;11.70;5.90;;;;;;;1.86;59.19;98601.02;439131;1270;141788;-70
2022/02/20 07:21:09;;;;;;;12.00;4.40;;;;;;;2.17;59.08;98596.52;437569;1271;142049;-70
2022/02/20 07:31:15;;;;;;;9.10;3.20;;;;;;;2.44;58.73;98597.72;438713;1271;141990;-71
2022/02/20 07:41:20;;;;;;;5.90;2.40;;;;;;;2.54;59.19;98597.63;430285;1271;140737;-71
2022/02/20 07:51:27;;;;;;;3.50;2.80;;;;;;;2.57;60.54;98587.10;431015;1270;145062;-71
2022/02/20 08:01:33;;;;;;;4.50;1.70;;;;;;;2.71;61.72;98577.63;430873;1272;142230;-72
2022/02/20 08:11:39;;;;;;;1.70;1.10;;;;;;;2.64;63.33;98581.23;430690;1273;141150;-72
2022/02/20 08:21:44;;;;;;;4.90;1.50;;;;;;;2.48;64.50;98579.77;436754;1271;142954;-72
2022/02/20 08:31:50;;;;;;;5.20;1.60;;;;;;;2.31;65.96;98580.36;447434;1271;142635;-72
2022/02/20 08:41:56;;;;;;;3.10;1.80;;;;;;;2.16;67.17;98584.16;447410;1269;142159;-72
2022/02/20 08:52:02;;;;;;;2.50;1.60;;;;;;;1.98;68.50;98594.46;447322;1271;142006;-72
2022/02/20 09:02:09;;;;;;;4.70;2.40;;;;;;;2.16;69.53;98591.92;444067;1271;142636;-71
2022/02/20 09:12:15;;;;;;;3.80;1.90;;;;;;;2.23;70.22;98593.86;444597;1272;142883;-69
2022/02/20 09:22:21;;;;;;;6.10;3.10;;;;;;;2.15;70.80;98582.45;430070;1273;141909;-70
2022/02/20 09:32:27;;;;;;;4.60;3.40;;;;;;;2.21;71.51;98582.19;443900;1271;142488;-70
2022/02/20 09:42:34;;;;;;;4.20;3.30;;;;;;;2.31;71.93;98584.32;443506;1271;143830;-71
2022/02/20 09:52:39;;;;;;;5.10;2.90;;;;;;;2.28;72.54;98592.05;434652;1271;141841;-70
2022/02/20 10:02:46;;;;;;;4.80;4.20;;;;;;;2.17;72.96;98603.61;434394;1270;140365;-71
2022/02/20 10:12:59;;;;;;;3.30;2.90;;;;;;;2.41;73.43;98608.05;429958;1271;142149;-72
2022/02/20 10:23:08;;;;;;;7.10;4.10;;;;;;;2.42;73.87;98610.79;439748;1270;153383;-67
2022/02/20 10:33:20;;;;;;;7.60;4.40;;;;;;;2.53;74.28;98611.99;430698;1271;142972;-64
2022/02/20 10:43:31;;;;;;;3.80;2.80;;;;;;;3.06;74.40;98603.43;430008;1270;142052;-67
2022/02/20 10:53:38;;;;;;;3.50;2.40;;;;;;;3.26;74.17;98606.83;431058;1271;201847;-67
2022/02/20 11:03:44;;;;;;;4.30;3.50;;;;;;;3.03;74.09;98612.05;429419;1270;141711;-74
2022/02/20 11:13:50;;;;;;;3.70;2.80;;;;;;;2.79;74.48;98623.05;433626;1270;143644;-64
2022/02/20 11:23:59;;;;;;;4.60;3.40;;;;;;;2.62;75.38;98621.10;437302;1272;142117;-64
2022/02/20 11:34:06;;;;;;;3.50;3.10;;;;;;;2.58;75.68;98625.60;431912;1271;142284;-64
2022/02/20 11:44:17;;;;;;;6.90;2.50;;;;;;;2.64;76.00;98621.18;431066;1271;143793;-64
2022/02/20 11:54:24;;;;;;;2.60;2.40;;;;;;;2.87;75.94;98624.21;431775;1273;140815;-65
2022/02/20 12:05:06;;;;;;;4.50;3.80;;;;;;;2.81;75.67;98635.04;431455;1271;142304;-65
2022/02/20 12:15:30;;;;;;;4.20;3.80;;;;;;;2.84;75.68;98637.31;430707;1271;141671;-64
2022/02/20 12:25:39;;;;;;;4.90;4.20;;;;;;;3.00;75.69;98637.61;431658;1273;141947;-64
2022/02/20 12:35:52;;;;;;;5.00;4.10;;;;;;;3.06;75.60;98639.92;429803;1273;144757;-64
2022/02/20 12:46:00;;;;;;;4.90;4.30;;;;;;;3.12;75.21;98633.23;429724;1271;141254;-67
2022/02/20 12:56:07;;;;;;;6.90;4.10;;;;;;;3.67;75.46;98622.55;430519;1273;141017;-67
2022/02/20 13:06:13;;;;;;;5.60;3.90;;;;;;;4.10;73.91;98625.55;430648;1273;142937;-68
2022/02/20 13:16:23;;;;;;;5.30;4.80;;;;;;;4.20;73.29;98637.52;430486;1271;143743;-68
2022/02/20 13:26:29;;;;;;;4.30;3.80;;;;;;;4.11;73.17;98635.59;431761;1271;141808;-68
2022/02/20 13:36:35;;;;;;;4.50;3.70;;;;;;;4.11;73.27;98639.36;430852;1270;145374;-66
2022/02/20 13:46:43;;;;;;;4.10;3.30;;;;;;;4.33;72.63;98617.92;431625;1271;141503;-67
2022/02/20 13:56:52;;;;;;;3.50;3.20;;;;;;;4.70;71.69;98617.14;431739;1272;141485;-67
2022/02/20 14:07:06;;;;;;;3.20;2.90;;;;;;;4.47;71.03;98619.95;431807;1271;140937;-66
2022/02/20 14:17:12;;;;;;;4.10;2.80;;;;;;;4.30;70.98;98613.27;431752;1270;142126;-68
2022/02/20 14:27:18;;;;;;;3.20;2.90;;;;;;;4.23;71.40;98601.30;430269;1273;142205;-66
2022/02/20 14:37:35;;;;;;;4.50;2.80;;;;;;;4.32;71.50;98598.25;428201;1271;4633956;-68
2022/02/20 14:47:41;;;;;;;5.00;3.20;;;;;;;4.39;71.48;98597.70;430689;1273;141913;-68
2022/02/20 14:57:48;;;;;;;4.40;2.70;;;;;;;4.43;71.58;98588.79;430136;1273;141970;-68
2022/02/20 15:07:54;;;;;;;2.70;1.90;;;;;;;4.43;71.57;98591.41;431316;1273;142466;-66
2022/02/20 15:18:00;;;;;;;5.90;3.40;;;;;;;4.39;71.59;98575.02;429803;1273;141298;-65
2022/02/20 15:28:06;;;;;;;6.20;3.40;;;;;;;4.21;71.58;98560.58;430624;1273;141747;-68
2022/02/20 15:38:13;;;;;;;7.20;5.10;;;;;;;4.02;72.20;98536.46;431157;1271;141902;-66
2022/02/20 15:48:22;;;;;;;9.00;6.30;;;;;;;3.87;72.43;98517.65;430346;1273;164800;-66
2022/02/20 15:58:28;;;;;;;7.00;5.70;;;;;;;3.75;72.69;98509.83;431428;1271;143863;-68
2022/02/20 16:08:34;;;;;;;4.70;3.60;;;;;;;3.68;73.08;98498.98;431230;1271;141996;-69
2022/02/20 16:18:40;;;;;;;6.70;5.30;;;;;;;3.64;72.91;98478.23;430231;1271;142587;-67
2022/02/20 16:28:48;;;;;;;8.00;4.20;;;;;;;3.60;73.07;98467.18;430180;1271;142379;-67
2022/02/20 16:38:56;;;;;;;5.10;4.40;;;;;;;3.62;73.18;98458.61;430057;1271;145330;-66
2022/02/20 16:49:02;;;;;;;11.40;7.60;;;;;;;3.69;73.24;98460.46;432140;1273;141586;-67
2022/02/20 16:59:13;;;;;;;12.80;9.60;;;;;;;3.73;73.60;98455.39;431051;1273;143008;-71
2022/02/20 17:09:20;;;;;;;22.00;14.50;;;;;;;3.77;73.36;98441.88;430086;1274;143190;-71
2022/02/20 17:19:26;;;;;;;21.40;14.70;;;;;;;3.76;73.98;98423.03;430760;1271;142932;-72
2022/02/20 17:29:32;;;;;;;17.40;11.70;;;;;;;3.72;74.35;98410.27;430607;1271;142519;-70
2022/02/20 17:39:38;;;;;;;17.70;12.10;;;;;;;3.70;74.46;98390.31;430392;1271;143011;-68
2022/02/20 17:49:45;;;;;;;14.60;10.70;;;;;;;3.71;74.61;98369.16;430758;1271;142793;-69
2022/02/20 17:59:51;;;;;;;19.90;12.90;;;;;;;3.73;74.81;98356.02;430273;1271;142214;-69
2022/02/20 18:09:57;;;;;;;36.60;19.60;;;;;;;3.77;75.11;98352.02;430280;1271;144903;-70
2022/02/20 18:20:03;;;;;;;43.90;22.90;;;;;;;3.81;75.30;98353.00;431621;1271;142314;-69
2022/02/20 18:30:14;;;;;;;11.60;7.90;;;;;;;3.86;75.08;98340.80;430046;1271;141949;-70
2022/02/20 18:40:21;;;;;;;13.40;7.80;;;;;;;3.91;75.13;98334.64;430971;1270;141409;-68
2022/02/20 18:50:27;;;;;;;11.80;6.80;;;;;;;3.93;75.44;98323.05;431515;1271;143547;-69
2022/02/20 19:00:34;;;;;;;8.50;5.50;;;;;;;3.95;75.89;98310.34;430004;1271;142158;-69
2022/02/20 19:10:39;;;;;;;;;;;;;;;3.99;77.05;98294.36;431390;1271;142409;-69
2022/02/20 19:20:45;;;;;;;5.50;3.70;;;;;;;4.03;77.49;98273.14;431489;1270;129790;-69
2022/02/20 19:30:51;;;;;;;5.00;3.40;;;;;;;4.06;77.89;98252.39;431021;1271;142023;-68
2022/02/20 19:40:57;;;;;;;6.60;4.10;;;;;;;4.05;78.65;98213.14;430555;1271;141254;-69
2022/02/20 19:51:03;;;;;;;6.40;3.80;;;;;;;4.03;79.24;98189.52;429978;1270;141995;-68
2022/02/20 20:01:10;;;;;;;6.20;4.10;;;;;;;4.03;79.46;98173.93;431097;1270;142315;-69
2022/02/20 20:11:16;;;;;;;8.70;3.80;;;;;;;4.04;80.05;98169.69;431683;1271;141603;-69
2022/02/20 20:21:21;;;;;;;5.70;3.30;;;;;;;4.09;80.44;98161.27;430716;1270;142364;-68
2022/02/20 20:31:27;;;;;;;6.70;3.90;;;;;;;4.14;80.88;98145.41;430394;1271;141615;-69
2022/02/20 20:41:36;;;;;;;6.50;3.20;;;;;;;4.14;80.80;98136.36;430353;1271;142290;-70
2022/02/20 20:51:42;;;;;;;5.90;2.60;;;;;;;4.17;81.26;98132.41;430032;1271;141892;-70
2022/02/20 21:01:48;;;;;;;3.80;3.00;;;;;;;4.21;81.61;98105.30;430204;1271;145452;-75
2022/02/20 21:11:54;;;;;;;5.40;3.00;;;;;;;4.26;81.70;98091.67;431226;1270;142862;-73
2022/02/20 21:22:02;;;;;;;8.00;4.30;;;;;;;4.33;81.62;98080.17;430773;1271;141242;-69
2022/02/20 21:32:09;;;;;;;3.50;3.10;;;;;;;4.41;81.72;98051.55;432188;1271;142156;-73
2022/02/20 21:42:15;;;;;;;3.30;2.90;;;;;;;4.47;81.66;98039.39;431069;1271;141970;-70
2022/02/20 21:52:21;;;;;;;5.50;3.90;;;;;;;4.51;81.71;98027.58;430400;1271;141279;-71
2022/02/20 22:02:27;;;;;;;5.30;3.00;;;;;;;4.56;81.67;98010.59;430651;1271;140854;-68
2022/02/20 22:12:33;;;;;;;3.80;2.80;;;;;;;4.67;81.17;97988.42;429894;1271;142051;-70
2022/02/20 22:22:39;;;;;;;4.50;3.10;;;;;;;4.74;81.24;97968.73;430629;1271;143106;-69
2022/02/20 22:32:45;;;;;;;4.00;2.40;;;;;;;4.81;80.70;97950.59;430151;1271;142156;-70
2022/02/20 22:42:51;;;;;;;3.80;2.30;;;;;;;4.90;80.62;97936.79;430262;1270;142518;-71
2022/02/20 22:52:57;;;;;;;3.60;2.10;;;;;;;5.04;80.24;97917.48;430848;1270;141267;-60
2022/02/20 23:03:03;;;;;;;3.30;2.70;;;;;;;5.14;80.11;97909.20;429917;1270;143942;-60
2022/02/20 23:13:10;;;;;;;4.40;2.80;;;;;;;5.18;79.76;97897.98;432534;1270;142765;-61
2022/02/20 23:23:17;;;;;;;3.70;2.60;;;;;;;5.20;79.55;97874.58;432170;1270;142790;-62
2022/02/20 23:33:23;;;;;;;4.00;2.20;;;;;;;5.26;79.24;97862.04;429254;1273;142586;-61
2022/02/20 23:43:29;;;;;;;3.50;2.70;;;;;;;5.30;79.01;97845.09;430128;1270;142150;-60
2022/02/20 23:53:35;;;;;;;3.90;3.00;;;;;;;5.34;78.92;97822.79;430113;1270;141436;-61
